Time;durP1;ratioP1;P1;durP2;ratioP2;P2;SDS_P1;SDS_P2;PMS_P1;PMS_P2;Temp;Humidity;BMP_temperature;BMP_pressure;BME280_temperature;BME280_humidity;BME280_pressure;Samples;Min_cycle;Max_cycle;Signal;HPM_P1;HPM_P2
2023/05/21 00:01:44;;;;;;;0.10;0.10;;;;;;;;;;6136188;23;20030;-76
2023/05/21 00:04:33;;;;;;;0.10;0.10;;;;;;;;;;6134206;23;20017;-76
2023/05/21 00:07:19;;;;;;;0.10;0.10;;;;;;;;;;6133837;23;20010;-77
2023/05/21 00:10:05;;;;;;;0.10;0.10;;;;;;;;;;6134664;23;20013;-76
2023/05/21 00:12:51;;;;;;;0.10;0.10;;;;;;;;;;6134041;23;20128;-76
2023/05/21 00:15:36;;;;;;;0.10;0.10;;;;;;;;;;6134070;23;20052;-76
2023/05/21 00:18:24;;;;;;;0.10;0.10;;;;;;;;;;6133668;23;20061;-76
2023/05/21 00:21:11;;;;;;;0.10;0.10;;;;;;;;;;6133306;23;20458;-76
2023/05/21 00:23:57;;;;;;;0.10;0.10;;;;;;;;;;6133750;23;20305;-76
2023/05/21 00:26:43;;;;;;;0.10;0.10;;;;;;;;;;6113131;23;20424;-76
2023/05/21 00:29:28;;;;;;;0.10;0.10;;;;;;;;;;6133307;23;20018;-76
2023/05/21 00:32:14;;;;;;;0.10;0.10;;;;;;;;;;6134142;23;20108;-76
2023/05/21 00:35:00;;;;;;;0.00;0.00;;;;;;;;;;6133722;23;20013;-76
2023/05/21 00:37:46;;;;;;;0.10;0.10;;;;;;;;;;6133664;23;20025;-76
2023/05/21 00:40:32;;;;;;;0.10;0.10;;;;;;;;;;6111921;23;20044;-76
2023/05/21 00:43:18;;;;;;;0.10;0.10;;;;;;;;;;6113917;23;20116;-76
2023/05/21 00:46:04;;;;;;;0.03;0.03;;;;;;;;;;6134059;23;20021;-76
2023/05/21 00:48:50;;;;;;;0.10;0.10;;;;;;;;;;6133219;23;20024;-77
2023/05/21 00:51:35;;;;;;;0.10;0.10;;;;;;;;;;6133588;23;20072;-76
2023/05/21 00:54:22;;;;;;;0.10;0.10;;;;;;;;;;6133941;23;20110;-76
2023/05/21 00:57:08;;;;;;;0.10;0.10;;;;;;;;;;6133795;23;20021;-77
2023/05/21 00:59:54;;;;;;;0.10;0.10;;;;;;;;;;6134795;23;20391;-76
2023/05/21 01:02:40;;;;;;;0.10;0.10;;;;;;;;;;6134946;23;20026;-76
2023/05/21 01:05:27;;;;;;;0.00;0.00;;;;;;;;;;6132185;23;20017;-76
2023/05/21 01:08:13;;;;;;;0.00;0.00;;;;;;;;;;6114768;23;20013;-76
2023/05/21 01:11:01;;;;;;;0.03;0.03;;;;;;;;;;6136328;23;20339;-76
2023/05/21 01:13:47;;;;;;;0.10;0.10;;;;;;;;;;6136394;23;20021;-76
2023/05/21 01:16:35;;;;;;;0.10;0.10;;;;;;;;;;6115360;23;20014;-76
2023/05/21 01:19:22;;;;;;;0.10;0.10;;;;;;;;;;6112235;23;20324;-76
2023/05/21 01:22:08;;;;;;;0.10;0.10;;;;;;;;;;6135422;23;20438;-76
2023/05/21 01:24:54;;;;;;;0.10;0.10;;;;;;;;;;6116155;23;20013;-76
2023/05/21 01:27:40;;;;;;;0.10;0.10;;;;;;;;;;6135130;23;20017;-76
2023/05/21 01:30:26;;;;;;;0.10;0.10;;;;;;;;;;6111356;23;20680;-76
2023/05/21 01:33:16;;;;;;;0.10;0.10;;;;;;;;;;6135764;23;20021;-76
2023/05/21 01:36:04;;;;;;;0.10;0.10;;;;;;;;;;6113699;23;20479;-76
2023/05/21 01:39:00;;;;;;;0.10;0.10;;;;;;;;;;6136203;23;20307;-75
2023/05/21 01:41:46;;;;;;;0.00;0.00;;;;;;;;;;6135281;23;20048;-76
2023/05/21 01:44:32;;;;;;;0.10;0.10;;;;;;;;;;6136657;23;20417;-76
2023/05/21 01:47:19;;;;;;;0.10;0.10;;;;;;;;;;6115245;23;20524;-76
2023/05/21 01:50:05;;;;;;;0.10;0.10;;;;;;;;;;6135999;23;20064;-76
2023/05/21 01:52:52;;;;;;;0.10;0.10;;;;;;;;;;6136651;23;20084;-76
2023/05/21 01:55:40;;;;;;;0.10;0.10;;;;;;;;;;6135540;23;20028;-76
2023/05/21 01:58:26;;;;;;;0.00;0.00;;;;;;;;;;6114792;23;20516;-76
2023/05/21 02:01:12;;;;;;;0.10;0.10;;;;;;;;;;6111054;23;20474;-76
2023/05/21 02:03:57;;;;;;;0.10;0.10;;;;;;;;;;6114971;23;20109;-76
2023/05/21 02:06:43;;;;;;;0.10;0.10;;;;;;;;;;6137514;23;20014;-76
2023/05/21 02:09:29;;;;;;;0.10;0.10;;;;;;;;;;6134090;23;20013;-76
2023/05/21 02:12:15;;;;;;;0.10;0.10;;;;;;;;;;6134404;23;20455;-76
2023/05/21 02:15:01;;;;;;;0.10;0.10;;;;;;;;;;6114218;23;20258;-76
2023/05/21 02:17:50;;;;;;;0.10;0.10;;;;;;;;;;6114069;23;20065;-76
2023/05/21 02:20:35;;;;;;;0.10;0.10;;;;;;;;;;6113633;23;20268;-76
2023/05/21 02:23:21;;;;;;;0.10;0.10;;;;;;;;;;6114562;23;20032;-76
2023/05/21 02:26:07;;;;;;;0.00;0.00;;;;;;;;;;6114733;23;20099;-77
2023/05/21 02:28:54;;;;;;;0.10;0.10;;;;;;;;;;6135714;23;20471;-76
2023/05/21 02:31:40;;;;;;;0.10;0.10;;;;;;;;;;6135617;23;20451;-76
2023/05/21 02:34:25;;;;;;;0.10;0.10;;;;;;;;;;6134515;23;20397;-76
2023/05/21 02:37:11;;;;;;;0.00;0.00;;;;;;;;;;6134602;23;20021;-76
2023/05/21 02:39:57;;;;;;;0.10;0.10;;;;;;;;;;6114530;23;20025;-76
2023/05/21 02:42:43;;;;;;;0.00;0.00;;;;;;;;;;6115601;23;20028;-76
2023/05/21 02:45:33;;;;;;;0.10;0.10;;;;;;;;;;6115896;23;20035;-76
2023/05/21 02:48:19;;;;;;;0.10;0.10;;;;;;;;;;6114699;23;20100;-76
2023/05/21 02:51:05;;;;;;;0.10;0.10;;;;;;;;;;6134702;23;20410;-76
2023/05/21 02:53:53;;;;;;;0.10;0.10;;;;;;;;;;6115691;23;20103;-76
2023/05/21 02:56:38;;;;;;;0.10;0.10;;;;;;;;;;6115381;23;20021;-76
2023/05/21 02:59:24;;;;;;;0.10;0.10;;;;;;;;;;6134113;23;20017;-76
2023/05/21 03:02:10;;;;;;;0.10;0.10;;;;;;;;;;6111848;23;20076;-76
2023/05/21 03:04:56;;;;;;;0.05;0.05;;;;;;;;;;6115547;23;20021;-76
2023/05/21 03:07:42;;;;;;;0.03;0.03;;;;;;;;;;6114901;23;20021;-76
2023/05/21 03:10:29;;;;;;;0.10;0.10;;;;;;;;;;6113901;23;20498;-77
2023/05/21 03:13:15;;;;;;;0.10;0.10;;;;;;;;;;6113601;23;20049;-76
2023/05/21 03:16:03;;;;;;;0.00;0.00;;;;;;;;;;6113766;23;20014;-76
2023/05/21 03:18:50;;;;;;;0.10;0.10;;;;;;;;;;6113840;23;20104;-76
2023/05/21 03:21:36;;;;;;;0.10;0.10;;;;;;;;;;6115340;23;20025;-76
2023/05/21 03:24:22;;;;;;;0.10;0.10;;;;;;;;;;6113757;23;20014;-76
2023/05/21 03:27:08;;;;;;;0.10;0.10;;;;;;;;;;6134386;23;20093;-77
2023/05/21 03:29:56;;;;;;;0.00;0.00;;;;;;;;;;6113088;23;20021;-76
2023/05/21 03:32:43;;;;;;;0.10;0.10;;;;;;;;;;6136751;23;20025;-76
2023/05/21 03:35:29;;;;;;;0.10;0.10;;;;;;;;;;6114737;23;20379;-76
2023/05/21 03:38:15;;;;;;;0.10;0.10;;;;;;;;;;6113744;23;20100;-76
2023/05/21 03:41:01;;;;;;;0.10;0.10;;;;;;;;;;6111885;23;20283;-76
2023/05/21 03:43:46;;;;;;;0.10;0.10;;;;;;;;;;6134525;23;20444;-76
2023/05/21 03:46:32;;;;;;;0.10;0.10;;;;;;;;;;6114007;23;20049;-76
2023/05/21 03:49:28;;;;;;;0.10;0.10;;;;;;;;;;6115304;23;20490;-76
2023/05/21 03:52:18;;;;;;;0.10;0.10;;;;;;;;;;6112068;23;20026;-77
2023/05/21 03:55:03;;;;;;;0.10;0.10;;;;;;;;;;6114076;23;20013;-76
2023/05/21 03:57:49;;;;;;;0.10;0.10;;;;;;;;;;6135926;23;20009;-76
2023/05/21 04:00:36;;;;;;;0.10;0.10;;;;;;;;;;6112352;23;20021;-76
2023/05/21 04:03:23;;;;;;;0.10;0.10;;;;;;;;;;6115451;23;20021;-76
2023/05/21 04:06:09;;;;;;;0.10;0.10;;;;;;;;;;6113721;23;20017;-77
2023/05/21 04:08:55;;;;;;;0.10;0.10;;;;;;;;;;6115214;23;20017;-76
2023/05/21 04:11:40;;;;;;;0.10;0.10;;;;;;;;;;6115023;23;20017;-76
2023/05/21 04:14:26;;;;;;;0.10;0.10;;;;;;;;;;6134863;23;20023;-76
2023/05/21 04:17:12;;;;;;;0.00;0.00;;;;;;;;;;6115957;23;20017;-76
2023/05/21 04:19:58;;;;;;;0.10;0.10;;;;;;;;;;6115902;23;20096;-77
2023/05/21 04:22:44;;;;;;;0.10;0.10;;;;;;;;;;6136181;23;20032;-77
2023/05/21 04:25:30;;;;;;;0.10;0.10;;;;;;;;;;6113486;23;20010;-77
2023/05/21 04:28:18;;;;;;;0.10;0.10;;;;;;;;;;6115368;23;20018;-77
2023/05/21 04:31:07;;;;;;;0.10;0.10;;;;;;;;;;6113946;23;20021;-77
2023/05/21 04:33:53;;;;;;;0.10;0.10;;;;;;;;;;6114729;23;20028;-77
2023/05/21 04:36:38;;;;;;;0.10;0.10;;;;;;;;;;6115826;23;20104;-77
2023/05/21 04:39:27;;;;;;;0.10;0.10;;;;;;;;;;6115447;23;20014;-77
2023/05/21 04:42:13;;;;;;;0.10;0.10;;;;;;;;;;6136357;23;20358;-76
2023/05/21 04:44:59;;;;;;;0.10;0.10;;;;;;;;;;6116367;23;20379;-77
2023/05/21 04:47:47;;;;;;;0.10;0.10;;;;;;;;;;6115467;23;20036;-77
2023/05/21 04:50:33;;;;;;;0.10;0.10;;;;;;;;;;6115418;23;20009;-77
2023/05/21 04:53:19;;;;;;;0.10;0.10;;;;;;;;;;6112052;23;20021;-77
2023/05/21 04:56:06;;;;;;;0.10;0.10;;;;;;;;;;6114201;23;20443;-77
2023/05/21 04:58:54;;;;;;;0.10;0.10;;;;;;;;;;6136250;23;20014;-77
2023/05/21 05:01:42;;;;;;;0.10;0.10;;;;;;;;;;6114289;23;20014;-77
2023/05/21 05:04:30;;;;;;;0.10;0.10;;;;;;;;;;6115727;23;20021;-77
2023/05/21 05:07:16;;;;;;;0.00;0.00;;;;;;;;;;6114132;23;20018;-76
2023/05/21 05:10:02;;;;;;;0.10;0.10;;;;;;;;;;6136371;23;20163;-76
2023/05/21 05:12:49;;;;;;;0.10;0.10;;;;;;;;;;6114438;23;20025;-76
2023/05/21 05:15:36;;;;;;;0.10;0.10;;;;;;;;;;6113755;23;20549;-76
2023/05/21 05:18:22;;;;;;;0.10;0.10;;;;;;;;;;6113307;23;20060;-76
2023/05/21 05:21:07;;;;;;;0.10;0.10;;;;;;;;;;6135520;23;20013;-76
2023/05/21 05:23:53;;;;;;;0.10;0.10;;;;;;;;;;6113645;23;20021;-76
2023/05/21 05:26:43;;;;;;;0.10;0.10;;;;;;;;;;6113425;23;20017;-76
2023/05/21 05:29:30;;;;;;;0.10;0.10;;;;;;;;;;6112917;23;20009;-77
2023/05/21 05:32:16;;;;;;;0.10;0.10;;;;;;;;;;6113427;23;20025;-77
2023/05/21 05:35:02;;;;;;;0.10;0.10;;;;;;;;;;6114378;23;20080;-76
2023/05/21 05:37:47;;;;;;;0.10;0.10;;;;;;;;;;6115569;23;20010;-77
2023/05/21 05:40:33;;;;;;;0.10;0.10;;;;;;;;;;6114929;23;20335;-76
2023/05/21 05:43:19;;;;;;;0.10;0.10;;;;;;;;;;6114611;23;20021;-76
2023/05/21 05:46:05;;;;;;;0.10;0.10;;;;;;;;;;6114635;23;20016;-76
2023/05/21 05:48:50;;;;;;;0.10;0.10;;;;;;;;;;6116653;23;20010;-77
2023/05/21 05:51:36;;;;;;;0.10;0.10;;;;;;;;;;6116868;23;20060;-78
2023/05/21 05:54:22;;;;;;;0.10;0.10;;;;;;;;;;6136817;23;20443;-77
2023/05/21 05:57:08;;;;;;;0.10;0.10;;;;;;;;;;6096830;23;20025;-77
2023/05/21 05:59:55;;;;;;;0.10;0.10;;;;;;;;;;6115717;23;20028;-77
2023/05/21 06:02:40;;;;;;;0.10;0.10;;;;;;;;;;6115863;23;20142;-77
2023/05/21 06:05:26;;;;;;;0.10;0.10;;;;;;;;;;6115703;23;20022;-77
2023/05/21 06:08:12;;;;;;;0.10;0.10;;;;;;;;;;6114713;23;20009;-77
2023/05/21 06:10:58;;;;;;;0.10;0.10;;;;;;;;;;6135128;23;20044;-76
2023/05/21 06:13:44;;;;;;;0.10;0.10;;;;;;;;;;6115232;23;20041;-76
2023/05/21 06:16:30;;;;;;;0.10;0.10;;;;;;;;;;6115997;23;20410;-77
2023/05/21 06:19:16;;;;;;;0.10;0.10;;;;;;;;;;6114307;23;20017;-77
2023/05/21 06:22:02;;;;;;;0.10;0.10;;;;;;;;;;6114758;23;20013;-77
2023/05/21 06:24:50;;;;;;;0.10;0.10;;;;;;;;;;6116230;23;20014;-77
2023/05/21 06:27:36;;;;;;;0.10;0.10;;;;;;;;;;6136177;23;20049;-77
2023/05/21 06:30:25;;;;;;;0.10;0.10;;;;;;;;;;6115519;23;21087;-77
2023/05/21 06:33:11;;;;;;;0.10;0.10;;;;;;;;;;6115744;23;20490;-77
2023/05/21 06:35:57;;;;;;;0.10;0.10;;;;;;;;;;6114953;23;20024;-77
2023/05/21 06:38:43;;;;;;;0.10;0.10;;;;;;;;;;6135980;23;20423;-77
2023/05/21 06:41:29;;;;;;;0.10;0.10;;;;;;;;;;6113380;23;20232;-77
2023/05/21 06:44:17;;;;;;;0.10;0.10;;;;;;;;;;6113721;23;20140;-77
2023/05/21 06:47:26;;;;;;;0.10;0.10;;;;;;;;;;6114837;23;20031;-77
2023/05/21 06:50:12;;;;;;;0.00;0.00;;;;;;;;;;6114588;23;20013;-77
2023/05/21 06:52:58;;;;;;;0.10;0.10;;;;;;;;;;6114726;23;20021;-77
2023/05/21 06:55:44;;;;;;;0.10;0.10;;;;;;;;;;6136871;23;20041;-77
2023/05/21 06:58:46;;;;;;;0.10;0.10;;;;;;;;;;6114715;23;20013;-77
2023/05/21 07:01:33;;;;;;;0.20;0.20;;;;;;;;;;6135301;23;20501;-77
2023/05/21 07:04:18;;;;;;;0.10;0.10;;;;;;;;;;6114555;23;20346;-77
2023/05/21 07:07:04;;;;;;;0.10;0.10;;;;;;;;;;6134909;23;20016;-76
2023/05/21 07:09:50;;;;;;;0.10;0.10;;;;;;;;;;6113679;23;20195;-77
2023/05/21 07:12:36;;;;;;;0.10;0.10;;;;;;;;;;6115484;23;20021;-77
2023/05/21 07:15:23;;;;;;;0.10;0.10;;;;;;;;;;6115542;23;20427;-77
2023/05/21 07:18:09;;;;;;;0.10;0.10;;;;;;;;;;6114365;23;20096;-77
2023/05/21 07:20:55;;;;;;;0.10;0.10;;;;;;;;;;6135655;23;20443;-77
2023/05/21 07:23:42;;;;;;;0.10;0.10;;;;;;;;;;6115046;23;20013;-77
2023/05/21 07:26:27;;;;;;;0.10;0.10;;;;;;;;;;6113999;23;20448;-77
2023/05/21 07:29:13;;;;;;;0.15;0.15;;;;;;;;;;6134926;23;20031;-76
2023/05/21 07:31:59;;;;;;;0.10;0.10;;;;;;;;;;6115536;23;20405;-77
2023/05/21 07:34:45;;;;;;;0.00;0.00;;;;;;;;;;6116684;23;20455;-77
2023/05/21 07:37:32;;;;;;;0.10;0.10;;;;;;;;;;6114350;23;20018;-77
2023/05/21 07:40:18;;;;;;;0.10;0.10;;;;;;;;;;6115389;23;20458;-77
2023/05/21 07:43:03;;;;;;;0.10;0.10;;;;;;;;;;6116664;23;20532;-76
2023/05/21 07:45:51;;;;;;;0.10;0.10;;;;;;;;;;6116039;23;20039;-78
2023/05/21 07:48:36;;;;;;;0.10;0.10;;;;;;;;;;6115763;23;20096;-76
2023/05/21 07:51:24;;;;;;;0.10;0.10;;;;;;;;;;6115286;23;20064;-76
2023/05/21 07:54:10;;;;;;;0.10;0.10;;;;;;;;;;6078124;23;20515;-77
2023/05/21 07:56:56;;;;;;;0.10;0.10;;;;;;;;;;6078421;23;20440;-78
2023/05/21 08:00:00;;;;;;;0.10;0.10;;;;;;;;;;6077414;23;20018;-77
2023/05/21 08:02:51;;;;;;;0.10;0.10;;;;;;;;;;6076605;23;20010;-78
2023/05/21 08:05:37;;;;;;;0.08;0.08;;;;;;;;;;6078072;23;20420;-77
2023/05/21 08:08:24;;;;;;;0.10;0.10;;;;;;;;;;6077289;23;20076;-77
2023/05/21 08:11:12;;;;;;;0.10;0.10;;;;;;;;;;6077660;23;20018;-78
2023/05/21 08:13:59;;;;;;;0.10;0.10;;;;;;;;;;6076975;23;20687;-77
2023/05/21 08:16:45;;;;;;;0.00;0.00;;;;;;;;;;6078273;23;20017;-76
2023/05/21 08:19:31;;;;;;;0.10;0.10;;;;;;;;;;6078905;23;20014;-77
2023/05/21 08:22:17;;;;;;;0.10;0.10;;;;;;;;;;6056616;23;20283;-76
2023/05/21 08:25:06;;;;;;;0.10;0.10;;;;;;;;;;6077252;23;20023;-77
2023/05/21 08:27:52;;;;;;;0.10;0.10;;;;;;;;;;6076915;23;20014;-77
2023/05/21 08:30:38;;;;;;;0.10;0.10;;;;;;;;;;6033693;23;20404;-76
2023/05/21 08:33:24;;;;;;;0.10;0.10;;;;;;;;;;6075198;23;20041;-77
2023/05/21 08:36:09;;;;;;;0.10;0.10;;;;;;;;;;6078172;23;20121;-78
2023/05/21 08:38:59;;;;;;;0.10;0.10;;;;;;;;;;6075391;23;20436;-78
2023/05/21 08:41:55;;;;;;;0.10;0.10;;;;;;;;;;6075998;23;20132;-78
2023/05/21 08:44:43;;;;;;;0.10;0.10;;;;;;;;;;6079398;23;20011;-78
2023/05/21 08:47:30;;;;;;;0.10;0.10;;;;;;;;;;6075111;23;20368;-77
2023/05/21 08:50:19;;;;;;;0.10;0.10;;;;;;;;;;6076911;23;20491;-77
2023/05/21 08:53:07;;;;;;;0.10;0.10;;;;;;;;;;6087140;23;20081;-78
2023/05/21 08:55:54;;;;;;;0.10;0.10;;;;;;;;;;6098055;23;20015;-79
2023/05/21 08:58:44;;;;;;;0.13;0.13;;;;;;;;;;6078910;23;20559;-77
2023/05/21 09:01:32;;;;;;;0.10;0.10;;;;;;;;;;6033439;23;20014;-77
2023/05/21 09:04:28;;;;;;;0.10;0.10;;;;;;;;;;6097665;23;20025;-78
2023/05/21 09:07:15;;;;;;;0.10;0.10;;;;;;;;;;6096258;23;20185;-78
2023/05/21 09:10:23;;;;;;;0.10;0.10;;;;;;;;;;6077992;23;20026;-77
2023/05/21 09:13:10;;;;;;;0.10;0.10;;;;;;;;;;6074548;23;20018;-78
2023/05/21 09:15:55;;;;;;;0.10;0.10;;;;;;;;;;6096970;23;20011;-78
2023/05/21 09:18:43;;;;;;;0.10;0.10;;;;;;;;;;6097797;23;20010;-77
2023/05/21 09:21:41;;;;;;;0.15;0.15;;;;;;;;;;6097845;23;20011;-78
2023/05/21 09:24:33;;;;;;;0.10;0.10;;;;;;;;;;6098124;23;20552;-78
2023/05/21 09:27:18;;;;;;;0.10;0.10;;;;;;;;;;6097137;23;20014;-75
2023/05/21 09:30:08;;;;;;;0.10;0.10;;;;;;;;;;6098357;23;20093;-78
2023/05/21 09:33:19;;;;;;;0.10;0.10;;;;;;;;;;6081642;23;20061;-78
2023/05/21 09:36:06;;;;;;;0.10;0.10;;;;;;;;;;6095889;23;20420;-78
2023/05/21 09:45:23;;;;;;;0.10;0.10;;;;;;;;;;6116249;23;20105;-73
2023/05/21 09:48:12;;;;;;;0.10;0.10;;;;;;;;;;6140544;23;20044;-73
2023/05/21 09:53:50;;;;;;;0.10;0.10;;;;;;;;;;6132734;22;20033;-76
2023/05/21 09:56:36;;;;;;;0.10;0.10;;;;;;;;;;6140015;23;20064;-77
2023/05/21 09:59:22;;;;;;;0.10;0.10;;;;;;;;;;6163637;23;20021;-76
2023/05/21 10:02:20;;;;;;;0.10;0.10;;;;;;;;;;6167080;23;20025;-77
2023/05/21 10:05:07;;;;;;;0.10;0.10;;;;;;;;;;6166754;23;20017;-77
2023/05/21 10:07:58;;;;;;;0.10;0.10;;;;;;;;;;6143456;23;20485;-76
2023/05/21 10:10:45;;;;;;;0.10;0.10;;;;;;;;;;6165557;23;20345;-77
2023/05/21 10:13:33;;;;;;;0.10;0.10;;;;;;;;;;6142856;23;20104;-77
2023/05/21 10:16:18;;;;;;;0.10;0.10;;;;;;;;;;6163493;23;20028;-77
2023/05/21 10:19:09;;;;;;;0.08;0.08;;;;;;;;;;6162797;23;20705;-77
2023/05/21 10:21:56;;;;;;;0.10;0.10;;;;;;;;;;6164918;23;20020;-77
2023/05/21 10:24:42;;;;;;;0.10;0.10;;;;;;;;;;6143214;23;20047;-77
2023/05/21 10:27:28;;;;;;;0.10;0.10;;;;;;;;;;6143419;23;20646;-77
2023/05/21 10:30:16;;;;;;;0.10;0.10;;;;;;;;;;6163455;23;20020;-78
2023/05/21 10:33:01;;;;;;;0.10;0.10;;;;;;;;;;6144678;23;20036;-77
2023/05/21 10:35:48;;;;;;;0.10;0.10;;;;;;;;;;6142356;23;20162;-77
2023/05/21 10:38:36;;;;;;;0.10;0.10;;;;;;;;;;6164520;23;20379;-76
2023/05/21 10:41:22;;;;;;;0.10;0.10;;;;;;;;;;6167477;23;20024;-77
2023/05/21 10:44:18;;;;;;;0.10;0.10;;;;;;;;;;6171211;23;20021;-76
2023/05/21 10:47:20;;;;;;;0.10;0.10;;;;;;;;;;6167093;23;20013;-76
2023/05/21 10:50:18;;;;;;;0.10;0.10;;;;;;;;;;6166951;23;20013;-76
2023/05/21 10:53:07;;;;;;;0.10;0.10;;;;;;;;;;6166927;23;20021;-76
2023/05/21 10:56:05;;;;;;;0.10;0.10;;;;;;;;;;6167618;23;20787;-76
2023/05/21 10:59:17;;;;;;;0.10;0.10;;;;;;;;;;6144814;23;20121;-76
2023/05/21 11:02:04;;;;;;;0.10;0.10;;;;;;;;;;6166844;23;20020;-76
2023/05/21 11:04:56;;;;;;;0.10;0.10;;;;;;;;;;6169407;23;20013;-76
2023/05/21 11:07:57;;;;;;;0.10;0.10;;;;;;;;;;6167297;23;20027;-77
2023/05/21 11:10:44;;;;;;;0.10;0.10;;;;;;;;;;6148012;23;20023;-76
2023/05/21 11:13:50;;;;;;;0.10;0.10;;;;;;;;;;6147827;23;20043;-76
2023/05/21 11:16:43;;;;;;;0.10;0.10;;;;;;;;;;6145872;23;20013;-76
2023/05/21 11:19:39;;;;;;;0.38;0.10;;;;;;;;;;6170129;23;20016;-76
2023/05/21 11:22:26;;;;;;;0.10;0.10;;;;;;;;;;6144543;23;20345;-77
2023/05/21 11:25:12;;;;;;;0.10;0.10;;;;;;;;;;6168431;23;20013;-77
2023/05/21 11:28:03;;;;;;;0.10;0.10;;;;;;;;;;6168005;23;20029;-77
2023/05/21 11:30:48;;;;;;;;;;;;;;;;;;6168087;23;20104;-77
2023/05/21 11:33:34;;;;;;;0.10;0.10;;;;;;;;;;6144824;23;19947;-77
2023/05/21 11:36:20;;;;;;;0.10;0.10;;;;;;;;;;6167449;23;20048;-77
2023/05/21 11:39:09;;;;;;;0.00;0.00;;;;;;;;;;6166785;23;20482;-77
2023/05/21 11:41:59;;;;;;;0.10;0.10;;;;;;;;;;6168358;23;20616;-77
2023/05/21 11:44:46;;;;;;;0.10;0.10;;;;;;;;;;6168295;23;20013;-77
2023/05/21 11:47:32;;;;;;;0.10;0.10;;;;;;;;;;6170491;23;20013;-77
2023/05/21 11:50:18;;;;;;;0.10;0.10;;;;;;;;;;6170132;23;20013;-77
2023/05/21 11:53:03;;;;;;;0.10;0.10;;;;;;;;;;6167140;23;20045;-78
2023/05/21 11:55:56;;;;;;;0.10;0.10;;;;;;;;;;6145986;23;20017;-77
2023/05/21 11:58:45;;;;;;;0.00;0.00;;;;;;;;;;6166502;23;20044;-77
2023/05/21 12:01:30;;;;;;;0.10;0.10;;;;;;;;;;6167992;23;20028;-77
2023/05/21 12:04:16;;;;;;;0.10;0.10;;;;;;;;;;6166859;23;20032;-77
2023/05/21 12:07:03;;;;;;;0.10;0.10;;;;;;;;;;6168273;23;20790;-77
2023/05/21 12:09:50;;;;;;;0.10;0.10;;;;;;;;;;6167961;23;20071;-77
2023/05/21 12:12:36;;;;;;;0.10;0.10;;;;;;;;;;6167891;23;20104;-77
2023/05/21 12:15:23;;;;;;;0.10;0.10;;;;;;;;;;6147963;23;20534;-77
2023/05/21 12:18:08;;;;;;;0.10;0.10;;;;;;;;;;6166998;23;20778;-78
2023/05/21 12:20:54;;;;;;;0.10;0.10;;;;;;;;;;6166337;23;20044;-77
2023/05/21 12:23:40;;;;;;;0.10;0.10;;;;;;;;;;6168289;23;20083;-77
2023/05/21 12:26:26;;;;;;;0.10;0.10;;;;;;;;;;6168546;23;20390;-78
2023/05/21 12:29:12;;;;;;;0.10;0.10;;;;;;;;;;6166747;23;20042;-77
2023/05/21 12:31:59;;;;;;;0.20;0.17;;;;;;;;;;6166795;23;20013;-78
2023/05/21 12:34:53;;;;;;;0.10;0.10;;;;;;;;;;6146170;23;20028;-78
2023/05/21 12:37:39;;;;;;;0.10;0.10;;;;;;;;;;6166514;23;20414;-78
2023/05/21 12:40:34;;;;;;;0.10;0.10;;;;;;;;;;6166795;23;20029;-78
2023/05/21 12:43:19;;;;;;;0.10;0.10;;;;;;;;;;6168432;23;20028;-78
2023/05/21 12:46:05;;;;;;;0.10;0.10;;;;;;;;;;6165850;23;20120;-78
2023/05/21 12:48:57;;;;;;;0.20;0.20;;;;;;;;;;6166684;23;20017;-78
2023/05/21 12:51:44;;;;;;;0.10;0.10;;;;;;;;;;6167669;23;20066;-77
2023/05/21 12:54:30;;;;;;;0.05;0.05;;;;;;;;;;6166857;23;20083;-78
2023/05/21 12:57:22;;;;;;;0.10;0.10;;;;;;;;;;6165395;23;20013;-78
2023/05/21 13:00:09;;;;;;;0.10;0.10;;;;;;;;;;6169794;23;20120;-77
2023/05/21 13:02:58;;;;;;;0.00;0.00;;;;;;;;;;6166443;23;20028;-77
2023/05/21 13:05:44;;;;;;;0.10;0.10;;;;;;;;;;6170991;23;20269;-77
2023/05/21 13:08:29;;;;;;;0.10;0.10;;;;;;;;;;6167121;23;20518;-78
2023/05/21 13:11:15;;;;;;;0.00;0.00;;;;;;;;;;6169931;23;20017;-78
2023/05/21 13:14:01;;;;;;;0.10;0.10;;;;;;;;;;6167766;23;20393;-78
2023/05/21 13:16:46;;;;;;;0.10;0.10;;;;;;;;;;6168718;23;20012;-77
2023/05/21 13:19:32;;;;;;;0.10;0.10;;;;;;;;;;6149330;23;20700;-77
2023/05/21 13:22:18;;;;;;;0.10;0.10;;;;;;;;;;6169028;23;20021;-78
2023/05/21 13:25:07;;;;;;;0.10;0.10;;;;;;;;;;6169330;23;20075;-78
2023/05/21 13:27:53;;;;;;;0.00;0.00;;;;;;;;;;6170811;23;20024;-78
2023/05/21 13:30:39;;;;;;;0.00;0.00;;;;;;;;;;6166582;23;20056;-77
2023/05/21 13:33:25;;;;;;;0.00;0.00;;;;;;;;;;6164640;23;20024;-78
2023/05/21 13:36:11;;;;;;;0.00;0.00;;;;;;;;;;6171341;23;20049;-76
2023/05/21 13:38:56;;;;;;;0.00;0.00;;;;;;;;;;6170002;23;20059;-77
2023/05/21 13:41:42;;;;;;;0.10;0.10;;;;;;;;;;6167958;23;20184;-77
2023/05/21 13:44:28;;;;;;;0.00;0.00;;;;;;;;;;6167955;23;20032;-77
2023/05/21 13:47:14;;;;;;;0.00;0.00;;;;;;;;;;6148680;23;20021;-77
2023/05/21 13:49:59;;;;;;;0.00;0.00;;;;;;;;;;6167523;23;20100;-77
2023/05/21 13:52:45;;;;;;;0.00;0.00;;;;;;;;;;6167591;23;20027;-77
2023/05/21 13:55:31;;;;;;;0.00;0.00;;;;;;;;;;6150173;23;20021;-77
2023/05/21 13:58:16;;;;;;;0.00;0.00;;;;;;;;;;6169003;23;20112;-77
2023/05/21 14:01:04;;;;;;;0.10;0.10;;;;;;;;;;6168328;23;20021;-77
2023/05/21 14:03:50;;;;;;;0.00;0.00;;;;;;;;;;6166970;23;20756;-77
2023/05/21 14:06:36;;;;;;;0.00;0.00;;;;;;;;;;6168298;23;20071;-77
2023/05/21 14:09:22;;;;;;;0.10;0.10;;;;;;;;;;6168896;23;20039;-77
2023/05/21 14:12:08;;;;;;;0.00;0.00;;;;;;;;;;6148660;23;20017;-77
2023/05/21 14:14:53;;;;;;;0.00;0.00;;;;;;;;;;6168058;23;20016;-77
2023/05/21 14:17:40;;;;;;;0.00;0.00;;;;;;;;;;6168238;23;20510;-77
2023/05/21 14:20:26;;;;;;;0.00;0.00;;;;;;;;;;6148044;23;20013;-77
2023/05/21 14:23:12;;;;;;;0.00;0.00;;;;;;;;;;6166612;23;20071;-77
2023/05/21 14:25:58;;;;;;;0.00;0.00;;;;;;;;;;6168072;23;20079;-77
2023/05/21 14:28:44;;;;;;;0.08;0.08;;;;;;;;;;6166037;23;20040;-77
2023/05/21 14:31:29;;;;;;;0.00;0.00;;;;;;;;;;6162962;23;20041;-77
2023/05/21 14:34:15;;;;;;;0.10;0.10;;;;;;;;;;6171527;23;20024;-77
2023/05/21 14:37:01;;;;;;;0.10;0.10;;;;;;;;;;6149180;23;20024;-77
2023/05/21 14:39:46;;;;;;;0.00;0.00;;;;;;;;;;6168151;23;20473;-77
2023/05/21 14:42:35;;;;;;;0.10;0.10;;;;;;;;;;6150373;23;20071;-78
2023/05/21 14:45:23;;;;;;;0.10;0.10;;;;;;;;;;6168217;23;20680;-77
2023/05/21 14:48:12;;;;;;;0.10;0.10;;;;;;;;;;6167611;23;20016;-78
2023/05/21 14:50:58;;;;;;;0.10;0.10;;;;;;;;;;6148044;23;20045;-77
2023/05/21 14:53:43;;;;;;;0.00;0.00;;;;;;;;;;6169248;23;20618;-78
2023/05/21 14:56:29;;;;;;;0.00;0.00;;;;;;;;;;6127694;23;20009;-77
2023/05/21 14:59:15;;;;;;;0.00;0.00;;;;;;;;;;6169899;23;20017;-77
2023/05/21 15:02:06;;;;;;;0.00;0.00;;;;;;;;;;6165852;23;20040;-77
2023/05/21 15:04:52;;;;;;;0.00;0.00;;;;;;;;;;6166773;23;20024;-77
2023/05/21 15:07:38;;;;;;;0.00;0.00;;;;;;;;;;6168476;23;20039;-77
2023/05/21 15:10:27;;;;;;;0.00;0.00;;;;;;;;;;6170271;23;20021;-77
2023/05/21 15:13:12;;;;;;;0.00;0.00;;;;;;;;;;6123351;23;20021;-77
2023/05/21 15:15:58;;;;;;;0.10;0.00;;;;;;;;;;6164923;23;20052;-77
2023/05/21 15:18:44;;;;;;;0.00;0.00;;;;;;;;;;6170178;23;20012;-78
2023/05/21 15:21:30;;;;;;;0.00;0.00;;;;;;;;;;6147486;23;20017;-78
2023/05/21 15:24:16;;;;;;;0.10;0.10;;;;;;;;;;6145607;23;20021;-78
2023/05/21 15:27:01;;;;;;;0.10;0.10;;;;;;;;;;6168135;23;20036;-78
2023/05/21 15:29:48;;;;;;;0.10;0.10;;;;;;;;;;6169047;23;20103;-77
2023/05/21 15:32:36;;;;;;;0.00;0.00;;;;;;;;;;6169067;23;20055;-78
2023/05/21 15:35:22;;;;;;;0.00;0.00;;;;;;;;;;6168362;23;20021;-78
2023/05/21 15:38:11;;;;;;;0.00;0.00;;;;;;;;;;6165316;23;20067;-78
2023/05/21 15:40:59;;;;;;;0.00;0.00;;;;;;;;;;6169692;23;20079;-78
2023/05/21 15:43:45;;;;;;;0.00;0.00;;;;;;;;;;6169059;23;20032;-78
2023/05/21 15:46:31;;;;;;;0.00;0.00;;;;;;;;;;6168308;23;20057;-78
2023/05/21 15:49:17;;;;;;;0.00;0.00;;;;;;;;;;6169636;23;20040;-78
2023/05/21 15:52:06;;;;;;;0.00;0.00;;;;;;;;;;6169472;23;20634;-78
2023/05/21 15:54:52;;;;;;;0.00;0.00;;;;;;;;;;6146868;23;20067;-77
2023/05/21 15:57:37;;;;;;;0.03;0.03;;;;;;;;;;6168079;23;20727;-78
2023/05/21 16:00:23;;;;;;;0.00;0.00;;;;;;;;;;6147726;23;20052;-77
2023/05/21 16:03:10;;;;;;;0.00;0.00;;;;;;;;;;6167409;23;20021;-77
2023/05/21 16:05:56;;;;;;;0.00;0.00;;;;;;;;;;6169706;23;20477;-78
2023/05/21 16:08:42;;;;;;;0.08;0.08;;;;;;;;;;6168297;23;20016;-77
2023/05/21 16:11:27;;;;;;;0.00;0.00;;;;;;;;;;6101601;23;20521;-77
2023/05/21 16:14:13;;;;;;;0.03;0.03;;;;;;;;;;6164234;23;20017;-77
2023/05/21 16:16:59;;;;;;;0.00;0.00;;;;;;;;;;6143638;23;20013;-77
2023/05/21 16:19:45;;;;;;;0.10;0.10;;;;;;;;;;6164861;23;20486;-77
2023/05/21 16:22:35;;;;;;;0.05;0.05;;;;;;;;;;6163814;23;20054;-78
2023/05/21 16:25:20;;;;;;;0.10;0.10;;;;;;;;;;6165732;23;20013;-77
2023/05/21 16:28:06;;;;;;;0.00;0.00;;;;;;;;;;6164052;23;20021;-77
2023/05/21 16:30:52;;;;;;;0.00;0.00;;;;;;;;;;6165587;23;20770;-78
2023/05/21 16:33:38;;;;;;;0.00;0.00;;;;;;;;;;6162632;23;20021;-78
2023/05/21 16:36:24;;;;;;;0.00;0.00;;;;;;;;;;6165428;23;20028;-78
2023/05/21 16:39:09;;;;;;;0.00;0.00;;;;;;;;;;6163759;23;20059;-78
2023/05/21 16:41:58;;;;;;;0.00;0.00;;;;;;;;;;6166182;23;20017;-77
2023/05/21 16:44:44;;;;;;;0.10;0.10;;;;;;;;;;6167413;23;20048;-78
2023/05/21 16:47:29;;;;;;;0.00;0.00;;;;;;;;;;6167146;23;20032;-77
2023/05/21 16:50:16;;;;;;;0.00;0.00;;;;;;;;;;6167516;23;20024;-78
2023/05/21 16:53:02;;;;;;;0.20;0.10;;;;;;;;;;6167893;23;20521;-77